sensor_id;sensor_type;location;lat;lon;timestamp;temperature;humidity
24618;DHT22;12762;51.730;5.356;2023-07-13T00:01:54;17.60;64.60
24618;DHT22;12762;51.730;5.356;2023-07-13T00:04:23;17.60;64.80
24618;DHT22;12762;51.730;5.356;2023-07-13T00:06:53;17.50;64.80
24618;DHT22;12762;51.730;5.356;2023-07-13T00:09:21;17.50;64.80
24618;DHT22;12762;51.730;5.356;2023-07-13T00:11:54;17.50;65.00
24618;DHT22;12762;51.730;5.356;2023-07-13T00:14:22;17.50;65.10
24618;DHT22;12762;51.730;5.356;2023-07-13T00:16:49;17.40;65.00
24618;DHT22;12762;51.730;5.356;2023-07-13T00:19:17;17.40;65.10
24618;DHT22;12762;51.730;5.356;2023-07-13T00:21:44;17.40;65.10
24618;DHT22;12762;51.730;5.356;2023-07-13T00:24:14;17.40;65.20
24618;DHT22;12762;51.730;5.356;2023-07-13T00:26:42;17.40;65.30
24618;DHT22;12762;51.730;5.356;2023-07-13T00:29:13;17.30;65.40
24618;DHT22;12762;51.730;5.356;2023-07-13T00:31:40;17.30;65.40
24618;DHT22;12762;51.730;5.356;2023-07-13T00:34:07;17.30;65.60
24618;DHT22;12762;51.730;5.356;2023-07-13T00:36:34;17.20;65.70
24618;DHT22;12762;51.730;5.356;2023-07-13T00:39:01;17.30;65.90
24618;DHT22;12762;51.730;5.356;2023-07-13T00:41:28;17.20;65.90
24618;DHT22;12762;51.730;5.356;2023-07-13T00:43:55;17.20;66.00
24618;DHT22;12762;51.730;5.356;2023-07-13T00:48:53;17.10;66.30
24618;DHT22;12762;51.730;5.356;2023-07-13T00:51:27;17.20;66.50
24618;DHT22;12762;51.730;5.356;2023-07-13T00:53:57;17.10;66.50
24618;DHT22;12762;51.730;5.356;2023-07-13T00:56:26;17.10;66.60
24618;DHT22;12762;51.730;5.356;2023-07-13T00:58:53;17.00;66.50
24618;DHT22;12762;51.730;5.356;2023-07-13T01:01:23;17.00;66.70
24618;DHT22;12762;51.730;5.356;2023-07-13T01:03:50;17.00;66.80
24618;DHT22;12762;51.730;5.356;2023-07-13T01:06:17;17.00;67.10
24618;DHT22;12762;51.730;5.356;2023-07-13T01:08:44;16.90;67.00
24618;DHT22;12762;51.730;5.356;2023-07-13T01:11:11;16.90;67.10
24618;DHT22;12762;51.730;5.356;2023-07-13T01:13:38;16.90;67.30
24618;DHT22;12762;51.730;5.356;2023-07-13T01:16:24;16.90;67.40
24618;DHT22;12762;51.730;5.356;2023-07-13T01:18:51;16.90;67.60
24618;DHT22;12762;51.730;5.356;2023-07-13T01:21:18;16.80;67.60
24618;DHT22;12762;51.730;5.356;2023-07-13T01:23:48;16.80;67.60
24618;DHT22;12762;51.730;5.356;2023-07-13T01:26:15;16.80;67.80
24618;DHT22;12762;51.730;5.356;2023-07-13T01:28:42;16.80;67.90
24618;DHT22;12762;51.730;5.356;2023-07-13T01:31:10;16.80;68.00
24618;DHT22;12762;51.730;5.356;2023-07-13T01:33:39;16.70;68.00
24618;DHT22;12762;51.730;5.356;2023-07-13T01:36:07;16.70;68.20
24618;DHT22;12762;51.730;5.356;2023-07-13T01:38:36;16.70;68.40
24618;DHT22;12762;51.730;5.356;2023-07-13T01:41:03;16.70;68.50
24618;DHT22;12762;51.730;5.356;2023-07-13T01:43:30;16.60;68.50
24618;DHT22;12762;51.730;5.356;2023-07-13T01:45:57;16.60;68.60
24618;DHT22;12762;51.730;5.356;2023-07-13T01:48:44;16.60;68.70
24618;DHT22;12762;51.730;5.356;2023-07-13T01:51:11;16.50;68.70
24618;DHT22;12762;51.730;5.356;2023-07-13T01:53:38;16.50;68.90
24618;DHT22;12762;51.730;5.356;2023-07-13T01:56:04;16.50;69.00
24618;DHT22;12762;51.730;5.356;2023-07-13T01:58:31;16.50;69.10
24618;DHT22;12762;51.730;5.356;2023-07-13T02:00:58;16.40;69.20
24618;DHT22;12762;51.730;5.356;2023-07-13T02:03:25;16.40;69.30
24618;DHT22;12762;51.730;5.356;2023-07-13T02:05:52;16.40;69.50
24618;DHT22;12762;51.730;5.356;2023-07-13T02:08:19;16.40;69.60
24618;DHT22;12762;51.730;5.356;2023-07-13T02:10:46;16.30;69.60
24618;DHT22;12762;51.730;5.356;2023-07-13T02:13:13;16.30;69.80
24618;DHT22;12762;51.730;5.356;2023-07-13T02:15:40;16.30;69.90
24618;DHT22;12762;51.730;5.356;2023-07-13T02:18:10;16.20;70.00
24618;DHT22;12762;51.730;5.356;2023-07-13T02:20:37;16.20;70.20
24618;DHT22;12762;51.730;5.356;2023-07-13T02:23:04;16.20;70.30
24618;DHT22;12762;51.730;5.356;2023-07-13T02:25:35;16.20;70.40
24618;DHT22;12762;51.730;5.356;2023-07-13T02:28:02;16.20;70.60
24618;DHT22;12762;51.730;5.356;2023-07-13T02:30:30;16.20;70.80
24618;DHT22;12762;51.730;5.356;2023-07-13T02:32:57;16.20;70.90
24618;DHT22;12762;51.730;5.356;2023-07-13T02:35:24;16.10;70.90
24618;DHT22;12762;51.730;5.356;2023-07-13T02:37:51;16.10;71.10
24618;DHT22;12762;51.730;5.356;2023-07-13T02:40:18;16.10;71.10
24618;DHT22;12762;51.730;5.356;2023-07-13T02:42:45;16.10;71.10
24618;DHT22;12762;51.730;5.356;2023-07-13T02:45:12;16.00;71.10
24618;DHT22;12762;51.730;5.356;2023-07-13T02:47:41;16.00;71.20
24618;DHT22;12762;51.730;5.356;2023-07-13T02:50:08;16.00;71.40
24618;DHT22;12762;51.730;5.356;2023-07-13T02:52:35;16.00;71.40
24618;DHT22;12762;51.730;5.356;2023-07-13T02:55:02;16.00;71.60
24618;DHT22;12762;51.730;5.356;2023-07-13T02:57:35;15.90;71.60
24618;DHT22;12762;51.730;5.356;2023-07-13T03:00:05;15.90;71.20
24618;DHT22;12762;51.730;5.356;2023-07-13T03:02:32;15.90;71.90
24618;DHT22;12762;51.730;5.356;2023-07-13T03:05:00;15.90;72.00
24618;DHT22;12762;51.730;5.356;2023-07-13T03:07:27;15.90;72.10
24618;DHT22;12762;51.730;5.356;2023-07-13T03:09:55;15.90;72.30
24618;DHT22;12762;51.730;5.356;2023-07-13T03:12:23;15.90;72.40
24618;DHT22;12762;51.730;5.356;2023-07-13T03:14:50;15.80;72.30
24618;DHT22;12762;51.730;5.356;2023-07-13T03:17:17;15.80;72.30
24618;DHT22;12762;51.730;5.356;2023-07-13T03:19:47;15.90;72.60
24618;DHT22;12762;51.730;5.356;2023-07-13T03:22:17;15.80;72.60
24618;DHT22;12762;51.730;5.356;2023-07-13T03:24:45;15.80;72.60
24618;DHT22;12762;51.730;5.356;2023-07-13T03:27:12;15.70;72.70
24618;DHT22;12762;51.730;5.356;2023-07-13T03:29:40;15.70;72.80
24618;DHT22;12762;51.730;5.356;2023-07-13T03:32:07;15.70;72.90
24618;DHT22;12762;51.730;5.356;2023-07-13T03:34:34;15.70;73.00
24618;DHT22;12762;51.730;5.356;2023-07-13T03:37:01;15.70;73.10
24618;DHT22;12762;51.730;5.356;2023-07-13T03:39:28;15.60;73.10
24618;DHT22;12762;51.730;5.356;2023-07-13T03:41:55;15.60;73.10
24618;DHT22;12762;51.730;5.356;2023-07-13T03:44:22;15.60;73.20
24618;DHT22;12762;51.730;5.356;2023-07-13T03:46:49;15.60;73.30
24618;DHT22;12762;51.730;5.356;2023-07-13T03:49:16;15.60;73.40
24618;DHT22;12762;51.730;5.356;2023-07-13T03:51:43;15.60;73.50
24618;DHT22;12762;51.730;5.356;2023-07-13T03:54:09;15.60;73.50
24618;DHT22;12762;51.730;5.356;2023-07-13T03:56:36;15.60;73.60
24618;DHT22;12762;51.730;5.356;2023-07-13T03:59:03;15.60;73.70
24618;DHT22;12762;51.730;5.356;2023-07-13T04:01:34;15.60;73.80
24618;DHT22;12762;51.730;5.356;2023-07-13T04:04:01;15.60;73.90
24618;DHT22;12762;51.730;5.356;2023-07-13T04:06:30;15.60;74.10
24618;DHT22;12762;51.730;5.356;2023-07-13T04:08:59;15.60;74.20
24618;DHT22;12762;51.730;5.356;2023-07-13T04:11:29;15.60;74.30
24618;DHT22;12762;51.730;5.356;2023-07-13T04:13:56;15.60;74.30
24618;DHT22;12762;51.730;5.356;2023-07-13T04:16:24;15.60;74.40
24618;DHT22;12762;51.730;5.356;2023-07-13T04:18:51;15.60;74.50
24618;DHT22;12762;51.730;5.356;2023-07-13T04:21:22;15.60;74.60
24618;DHT22;12762;51.730;5.356;2023-07-13T04:23:49;15.60;74.60
24618;DHT22;12762;51.730;5.356;2023-07-13T04:26:16;15.60;74.80
24618;DHT22;12762;51.730;5.356;2023-07-13T04:28:43;15.60;74.90
24618;DHT22;12762;51.730;5.356;2023-07-13T04:31:10;15.60;74.90
24618;DHT22;12762;51.730;5.356;2023-07-13T04:33:37;15.60;75.10
24618;DHT22;12762;51.730;5.356;2023-07-13T04:36:05;15.60;75.20
24618;DHT22;12762;51.730;5.356;2023-07-13T04:38:32;15.60;75.20
24618;DHT22;12762;51.730;5.356;2023-07-13T04:41:05;15.70;75.40
24618;DHT22;12762;51.730;5.356;2023-07-13T04:43:33;15.70;75.30
24618;DHT22;12762;51.730;5.356;2023-07-13T04:46:09;15.70;75.20
24618;DHT22;12762;51.730;5.356;2023-07-13T04:48:38;15.80;75.40
24618;DHT22;12762;51.730;5.356;2023-07-13T04:51:05;15.80;75.40
24618;DHT22;12762;51.730;5.356;2023-07-13T04:53:33;15.80;75.50
24618;DHT22;12762;51.730;5.356;2023-07-13T04:56:02;15.90;75.50
24618;DHT22;12762;51.730;5.356;2023-07-13T04:58:29;15.90;75.40
24618;DHT22;12762;51.730;5.356;2023-07-13T05:01:00;16.00;76.30
24618;DHT22;12762;51.730;5.356;2023-07-13T05:03:28;16.00;75.60
24618;DHT22;12762;51.730;5.356;2023-07-13T05:06:04;16.10;75.60
24618;DHT22;12762;51.730;5.356;2023-07-13T05:08:32;16.10;76.50
24618;DHT22;12762;51.730;5.356;2023-07-13T05:11:00;16.20;75.70
24618;DHT22;12762;51.730;5.356;2023-07-13T05:13:28;16.20;75.70
24618;DHT22;12762;51.730;5.356;2023-07-13T05:16:01;16.30;75.70
24618;DHT22;12762;51.730;5.356;2023-07-13T05:18:29;16.30;75.70
24618;DHT22;12762;51.730;5.356;2023-07-13T05:21:04;16.40;75.80
24618;DHT22;12762;51.730;5.356;2023-07-13T05:23:33;16.60;76.00
24618;DHT22;12762;51.730;5.356;2023-07-13T05:26:02;16.60;76.00
24618;DHT22;12762;51.730;5.356;2023-07-13T05:28:32;16.70;75.90
24618;DHT22;12762;51.730;5.356;2023-07-13T05:30:59;16.80;75.90
24618;DHT22;12762;51.730;5.356;2023-07-13T05:33:27;16.80;75.80
24618;DHT22;12762;51.730;5.356;2023-07-13T05:35:54;16.90;75.80
24618;DHT22;12762;51.730;5.356;2023-07-13T05:38:21;16.90;75.90
24618;DHT22;12762;51.730;5.356;2023-07-13T05:40:47;17.00;76.00
24618;DHT22;12762;51.730;5.356;2023-07-13T05:43:14;17.10;76.10
24618;DHT22;12762;51.730;5.356;2023-07-13T05:45:42;17.20;76.00
24618;DHT22;12762;51.730;5.356;2023-07-13T05:48:09;17.30;75.80
24618;DHT22;12762;51.730;5.356;2023-07-13T05:50:35;17.40;75.80
24618;DHT22;12762;51.730;5.356;2023-07-13T05:53:03;17.50;75.80
24618;DHT22;12762;51.730;5.356;2023-07-13T05:55:30;17.50;75.70
24618;DHT22;12762;51.730;5.356;2023-07-13T05:57:57;17.60;75.80
24618;DHT22;12762;51.730;5.356;2023-07-13T06:00:25;17.60;75.70
24618;DHT22;12762;51.730;5.356;2023-07-13T06:02:52;17.60;75.60
24618;DHT22;12762;51.730;5.356;2023-07-13T06:05:19;17.70;75.60
24618;DHT22;12762;51.730;5.356;2023-07-13T06:07:46;17.70;75.60
24618;DHT22;12762;51.730;5.356;2023-07-13T06:10:13;17.70;75.70
24618;DHT22;12762;51.730;5.356;2023-07-13T06:12:40;17.70;75.70
24618;DHT22;12762;51.730;5.356;2023-07-13T06:15:07;17.80;75.80
24618;DHT22;12762;51.730;5.356;2023-07-13T06:17:34;17.90;75.80
24618;DHT22;12762;51.730;5.356;2023-07-13T06:20:01;18.00;75.70
24618;DHT22;12762;51.730;5.356;2023-07-13T06:22:28;18.00;75.60
24618;DHT22;12762;51.730;5.356;2023-07-13T06:24:55;18.10;75.70
24618;DHT22;12762;51.730;5.356;2023-07-13T06:27:22;18.10;75.50
24618;DHT22;12762;51.730;5.356;2023-07-13T06:29:49;18.10;75.50
24618;DHT22;12762;51.730;5.356;2023-07-13T06:32:15;18.10;75.50
24618;DHT22;12762;51.730;5.356;2023-07-13T06:34:42;18.10;75.50
24618;DHT22;12762;51.730;5.356;2023-07-13T06:37:10;18.10;75.60
24618;DHT22;12762;51.730;5.356;2023-07-13T06:39:37;18.20;75.80
24618;DHT22;12762;51.730;5.356;2023-07-13T06:42:06;18.20;75.90
24618;DHT22;12762;51.730;5.356;2023-07-13T06:44:33;18.30;76.10
24618;DHT22;12762;51.730;5.356;2023-07-13T06:47:00;18.50;76.00
24618;DHT22;12762;51.730;5.356;2023-07-13T06:49:29;18.80;75.80
24618;DHT22;12762;51.730;5.356;2023-07-13T06:51:58;18.90;75.30
24618;DHT22;12762;51.730;5.356;2023-07-13T06:54:25;19.00;75.10
24618;DHT22;12762;51.730;5.356;2023-07-13T06:56:52;19.10;75.10
24618;DHT22;12762;51.730;5.356;2023-07-13T06:59:19;19.40;75.10
24618;DHT22;12762;51.730;5.356;2023-07-13T07:01:46;19.50;74.70
24618;DHT22;12762;51.730;5.356;2023-07-13T07:04:13;19.80;74.60
24618;DHT22;12762;51.730;5.356;2023-07-13T07:06:39;20.00;74.10
24618;DHT22;12762;51.730;5.356;2023-07-13T07:09:06;20.20;73.50
24618;DHT22;12762;51.730;5.356;2023-07-13T07:11:36;20.30;73.10
24618;DHT22;12762;51.730;5.356;2023-07-13T07:14:03;20.30;72.80
24618;DHT22;12762;51.730;5.356;2023-07-13T07:16:30;20.30;72.80
24618;DHT22;12762;51.730;5.356;2023-07-13T07:18:57;20.30;72.70
24618;DHT22;12762;51.730;5.356;2023-07-13T07:21:27;20.30;72.60
24618;DHT22;12762;51.730;5.356;2023-07-13T07:23:54;20.30;72.50
24618;DHT22;12762;51.730;5.356;2023-07-13T07:26:20;20.30;72.70
24618;DHT22;12762;51.730;5.356;2023-07-13T07:28:51;20.50;73.30
24618;DHT22;12762;51.730;5.356;2023-07-13T07:31:38;20.50;72.10
24618;DHT22;12762;51.730;5.356;2023-07-13T07:34:08;20.60;72.60
24618;DHT22;12762;51.730;5.356;2023-07-13T07:36:35;20.90;72.60
24618;DHT22;12762;51.730;5.356;2023-07-13T07:39:05;21.40;72.10
24618;DHT22;12762;51.730;5.356;2023-07-13T07:41:33;21.90;71.40
24618;DHT22;12762;51.730;5.356;2023-07-13T07:44:05;22.30;70.40
24618;DHT22;12762;51.730;5.356;2023-07-13T07:46:34;22.90;69.80
24618;DHT22;12762;51.730;5.356;2023-07-13T07:49:01;23.30;68.50
24618;DHT22;12762;51.730;5.356;2023-07-13T07:51:28;23.30;67.10
24618;DHT22;12762;51.730;5.356;2023-07-13T07:53:55;23.20;67.10
24618;DHT22;12762;51.730;5.356;2023-07-13T07:56:25;23.20;67.30
24618;DHT22;12762;51.730;5.356;2023-07-13T07:58:56;23.30;67.00
24618;DHT22;12762;51.730;5.356;2023-07-13T08:01:29;23.30;66.70
24618;DHT22;12762;51.730;5.356;2023-07-13T08:03:59;23.30;66.70
24618;DHT22;12762;51.730;5.356;2023-07-13T08:06:29;23.40;66.30
24618;DHT22;12762;51.730;5.356;2023-07-13T08:09:03;23.30;66.10
24618;DHT22;12762;51.730;5.356;2023-07-13T08:11:31;23.10;66.00
24618;DHT22;12762;51.730;5.356;2023-07-13T08:14:00;23.00;66.10
24618;DHT22;12762;51.730;5.356;2023-07-13T08:16:34;23.00;66.10
24618;DHT22;12762;51.730;5.356;2023-07-13T08:19:01;22.80;65.80
24618;DHT22;12762;51.730;5.356;2023-07-13T08:21:28;22.60;66.20
24618;DHT22;12762;51.730;5.356;2023-07-13T08:23:55;22.50;66.60
24618;DHT22;12762;51.730;5.356;2023-07-13T08:26:22;22.60;66.80
24618;DHT22;12762;51.730;5.356;2023-07-13T08:28:49;22.60;66.60
24618;DHT22;12762;51.730;5.356;2023-07-13T08:31:16;22.70;67.10
24618;DHT22;12762;51.730;5.356;2023-07-13T08:33:43;23.10;67.30
24618;DHT22;12762;51.730;5.356;2023-07-13T08:36:10;23.40;66.30
24618;DHT22;12762;51.730;5.356;2023-07-13T08:38:37;23.60;65.60
24618;DHT22;12762;51.730;5.356;2023-07-13T08:41:18;23.80;64.70
24618;DHT22;12762;51.730;5.356;2023-07-13T08:43:48;23.90;64.30
24618;DHT22;12762;51.730;5.356;2023-07-13T08:46:32;23.90;63.80
24618;DHT22;12762;51.730;5.356;2023-07-13T08:49:13;24.10;63.40
24618;DHT22;12762;51.730;5.356;2023-07-13T08:51:46;24.10;62.60
24618;DHT22;12762;51.730;5.356;2023-07-13T08:54:26;24.00;62.80
24618;DHT22;12762;51.730;5.356;2023-07-13T08:56:56;24.10;62.90
24618;DHT22;12762;51.730;5.356;2023-07-13T08:59:27;24.20;62.10
24618;DHT22;12762;51.730;5.356;2023-07-13T09:10:30;24.30;61.70
24618;DHT22;12762;51.730;5.356;2023-07-13T09:15:34;24.50;60.70
24618;DHT22;12762;51.730;5.356;2023-07-13T09:18:52;24.20;60.40
24618;DHT22;12762;51.730;5.356;2023-07-13T09:21:14;24.00;60.30
24618;DHT22;12762;51.730;5.356;2023-07-13T09:23:42;23.80;61.10
24618;DHT22;12762;51.730;5.356;2023-07-13T09:26:22;23.80;61.50
24618;DHT22;12762;51.730;5.356;2023-07-13T09:28:57;23.70;60.90
24618;DHT22;12762;51.730;5.356;2023-07-13T09:31:32;23.60;61.00
24618;DHT22;12762;51.730;5.356;2023-07-13T09:34:07;23.40;61.00
24618;DHT22;12762;51.730;5.356;2023-07-13T09:36:36;23.30;61.40
24618;DHT22;12762;51.730;5.356;2023-07-13T09:39:27;23.30;61.50
24618;DHT22;12762;51.730;5.356;2023-07-13T09:42:14;23.30;61.30
24618;DHT22;12762;51.730;5.356;2023-07-13T09:44:59;23.20;61.20
24618;DHT22;12762;51.730;5.356;2023-07-13T09:47:28;23.10;61.30
24618;DHT22;12762;51.730;5.356;2023-07-13T09:50:02;23.10;61.80
24618;DHT22;12762;51.730;5.356;2023-07-13T09:53:01;22.90;62.30
24618;DHT22;12762;51.730;5.356;2023-07-13T09:55:36;22.80;62.70
24618;DHT22;12762;51.730;5.356;2023-07-13T10:00:57;22.60;63.20
24618;DHT22;12762;51.730;5.356;2023-07-13T10:03:28;22.70;63.80
24618;DHT22;12762;51.730;5.356;2023-07-13T10:06:03;23.00;63.50
24618;DHT22;12762;51.730;5.356;2023-07-13T10:08:31;23.10;62.90
24618;DHT22;12762;51.730;5.356;2023-07-13T10:11:29;23.20;63.00
24618;DHT22;12762;51.730;5.356;2023-07-13T10:13:58;23.10;62.40
24618;DHT22;12762;51.730;5.356;2023-07-13T10:16:31;23.10;62.40
24618;DHT22;12762;51.730;5.356;2023-07-13T10:19:24;23.00;61.80
24618;DHT22;12762;51.730;5.356;2023-07-13T10:21:58;23.00;61.20
24618;DHT22;12762;51.730;5.356;2023-07-13T10:24:32;22.90;61.00
24618;DHT22;12762;51.730;5.356;2023-07-13T10:27:15;22.80;61.40
24618;DHT22;12762;51.730;5.356;2023-07-13T10:32:47;22.50;62.60
24618;DHT22;12762;51.730;5.356;2023-07-13T10:35:17;22.10;63.90
24618;DHT22;12762;51.730;5.356;2023-07-13T10:37:58;21.80;65.10
24618;DHT22;12762;51.730;5.356;2023-07-13T10:40:34;21.40;65.90
24618;DHT22;12762;51.730;5.356;2023-07-13T10:43:06;21.10;66.80
24618;DHT22;12762;51.730;5.356;2023-07-13T10:45:36;21.00;67.90
24618;DHT22;12762;51.730;5.356;2023-07-13T10:48:04;21.00;68.60
24618;DHT22;12762;51.730;5.356;2023-07-13T10:50:32;21.00;68.90
24618;DHT22;12762;51.730;5.356;2023-07-13T10:53:30;21.00;69.20
24618;DHT22;12762;51.730;5.356;2023-07-13T10:55:59;21.00;68.90
24618;DHT22;12762;51.730;5.356;2023-07-13T10:58:40;21.00;69.50
24618;DHT22;12762;51.730;5.356;2023-07-13T11:01:13;21.00;69.60
24618;DHT22;12762;51.730;5.356;2023-07-13T11:09:36;21.00;70.60
24618;DHT22;12762;51.730;5.356;2023-07-13T11:14:42;21.20;70.60
24618;DHT22;12762;51.730;5.356;2023-07-13T11:22:53;21.40;70.10
24618;DHT22;12762;51.730;5.356;2023-07-13T11:25:34;21.40;69.90
24618;DHT22;12762;51.730;5.356;2023-07-13T11:35:46;22.20;69.50
24618;DHT22;12762;51.730;5.356;2023-07-13T11:38:35;22.40;68.60
24618;DHT22;12762;51.730;5.356;2023-07-13T11:41:22;22.70;68.20
24618;DHT22;12762;51.730;5.356;2023-07-13T11:43:50;22.90;68.00
24618;DHT22;12762;51.730;5.356;2023-07-13T11:46:25;23.20;67.70
24618;DHT22;12762;51.730;5.356;2023-07-13T11:48:53;23.50;67.20
24618;DHT22;12762;51.730;5.356;2023-07-13T11:51:31;23.80;66.40
24618;DHT22;12762;51.730;5.356;2023-07-13T11:54:04;24.10;65.80
24618;DHT22;12762;51.730;5.356;2023-07-13T11:56:31;24.20;63.40
24618;DHT22;12762;51.730;5.356;2023-07-13T11:59:07;24.30;62.90
24618;DHT22;12762;51.730;5.356;2023-07-13T12:01:36;24.50;62.90
24618;DHT22;12762;51.730;5.356;2023-07-13T12:04:24;24.80;62.60
24618;DHT22;12762;51.730;5.356;2023-07-13T12:06:57;25.00;62.00
24618;DHT22;12762;51.730;5.356;2023-07-13T12:09:27;25.20;61.50
24618;DHT22;12762;51.730;5.356;2023-07-13T12:11:56;25.20;60.90
24618;DHT22;12762;51.730;5.356;2023-07-13T12:14:23;25.10;60.80
24618;DHT22;12762;51.730;5.356;2023-07-13T12:16:51;25.30;61.10
24618;DHT22;12762;51.730;5.356;2023-07-13T12:19:22;25.50;60.30
24618;DHT22;12762;51.730;5.356;2023-07-13T12:21:54;25.60;59.40
24618;DHT22;12762;51.730;5.356;2023-07-13T12:24:22;25.60;59.00
24618;DHT22;12762;51.730;5.356;2023-07-13T12:26:58;25.60;58.80
24618;DHT22;12762;51.730;5.356;2023-07-13T12:29:26;25.70;58.60
24618;DHT22;12762;51.730;5.356;2023-07-13T12:31:53;25.90;60.10
24618;DHT22;12762;51.730;5.356;2023-07-13T12:34:22;26.20;58.10
24618;DHT22;12762;51.730;5.356;2023-07-13T12:39:24;26.30;57.00
24618;DHT22;12762;51.730;5.356;2023-07-13T12:41:53;26.20;56.50
24618;DHT22;12762;51.730;5.356;2023-07-13T12:44:41;26.10;56.70
24618;DHT22;12762;51.730;5.356;2023-07-13T12:47:13;26.20;56.50
24618;DHT22;12762;51.730;5.356;2023-07-13T12:49:55;26.30;56.10
24618;DHT22;12762;51.730;5.356;2023-07-13T12:52:27;26.40;56.00
24618;DHT22;12762;51.730;5.356;2023-07-13T12:55:06;26.40;55.20
24618;DHT22;12762;51.730;5.356;2023-07-13T12:57:41;26.50;55.20
24618;DHT22;12762;51.730;5.356;2023-07-13T13:00:27;26.30;55.10
24618;DHT22;12762;51.730;5.356;2023-07-13T13:02:56;26.10;55.40
24618;DHT22;12762;51.730;5.356;2023-07-13T13:05:44;26.10;55.70
24618;DHT22;12762;51.730;5.356;2023-07-13T13:08:12;26.30;55.80
24618;DHT22;12762;51.730;5.356;2023-07-13T13:10:39;26.40;55.20
24618;DHT22;12762;51.730;5.356;2023-07-13T13:13:06;26.50;54.60
24618;DHT22;12762;51.730;5.356;2023-07-13T13:15:36;26.50;53.60
24618;DHT22;12762;51.730;5.356;2023-07-13T13:18:10;26.40;53.60
24618;DHT22;12762;51.730;5.356;2023-07-13T13:20:41;26.40;53.60
24618;DHT22;12762;51.730;5.356;2023-07-13T13:23:19;26.30;53.30
24618;DHT22;12762;51.730;5.356;2023-07-13T13:25:49;26.10;53.40
24618;DHT22;12762;51.730;5.356;2023-07-13T13:28:19;25.90;53.90
24618;DHT22;12762;51.730;5.356;2023-07-13T13:30:47;25.70;54.30
24618;DHT22;12762;51.730;5.356;2023-07-13T13:33:19;25.60;54.80
24618;DHT22;12762;51.730;5.356;2023-07-13T13:35:46;25.50;54.60
24618;DHT22;12762;51.730;5.356;2023-07-13T13:38:19;25.40;54.50
24618;DHT22;12762;51.730;5.356;2023-07-13T13:40:46;25.30;54.40
24618;DHT22;12762;51.730;5.356;2023-07-13T13:43:23;25.10;54.90
24618;DHT22;12762;51.730;5.356;2023-07-13T13:45:56;25.00;55.30
24618;DHT22;12762;51.730;5.356;2023-07-13T13:48:33;24.90;55.00
24618;DHT22;12762;51.730;5.356;2023-07-13T13:51:01;24.90;55.10
24618;DHT22;12762;51.730;5.356;2023-07-13T13:53:30;24.80;55.00
24618;DHT22;12762;51.730;5.356;2023-07-13T13:55:59;24.70;55.00
24618;DHT22;12762;51.730;5.356;2023-07-13T13:58:26;24.60;55.20
24618;DHT22;12762;51.730;5.356;2023-07-13T14:00:54;24.50;55.50
24618;DHT22;12762;51.730;5.356;2023-07-13T14:03:21;24.40;56.00
24618;DHT22;12762;51.730;5.356;2023-07-13T14:05:49;24.40;56.30
24618;DHT22;12762;51.730;5.356;2023-07-13T14:08:18;24.40;56.20
24618;DHT22;12762;51.730;5.356;2023-07-13T14:10:48;24.40;56.40
24618;DHT22;12762;51.730;5.356;2023-07-13T14:13:25;24.40;56.40
24618;DHT22;12762;51.730;5.356;2023-07-13T14:15:53;24.50;56.40
24618;DHT22;12762;51.730;5.356;2023-07-13T14:18:22;24.70;56.30
24618;DHT22;12762;51.730;5.356;2023-07-13T14:20:52;24.80;56.30
24618;DHT22;12762;51.730;5.356;2023-07-13T14:23:20;24.80;55.90
24618;DHT22;12762;51.730;5.356;2023-07-13T14:25:47;24.80;55.90
24618;DHT22;12762;51.730;5.356;2023-07-13T14:28:23;24.70;55.70
24618;DHT22;12762;51.730;5.356;2023-07-13T14:30:52;24.70;55.60
24618;DHT22;12762;51.730;5.356;2023-07-13T14:33:19;24.70;55.90
24618;DHT22;12762;51.730;5.356;2023-07-13T14:35:48;24.70;56.30
24618;DHT22;12762;51.730;5.356;2023-07-13T14:38:18;24.80;55.90
24618;DHT22;12762;51.730;5.356;2023-07-13T14:40:46;24.80;55.50
24618;DHT22;12762;51.730;5.356;2023-07-13T14:43:15;24.70;55.00
24618;DHT22;12762;51.730;5.356;2023-07-13T14:45:49;24.40;55.30
24618;DHT22;12762;51.730;5.356;2023-07-13T14:48:24;24.10;56.00
24618;DHT22;12762;51.730;5.356;2023-07-13T14:50:56;23.90;56.20
24618;DHT22;12762;51.730;5.356;2023-07-13T14:53:25;23.80;56.60
24618;DHT22;12762;51.730;5.356;2023-07-13T14:55:54;23.70;57.00
24618;DHT22;12762;51.730;5.356;2023-07-13T14:58:24;23.70;57.10
24618;DHT22;12762;51.730;5.356;2023-07-13T15:00:51;23.70;57.10
24618;DHT22;12762;51.730;5.356;2023-07-13T15:03:24;23.70;57.40
24618;DHT22;12762;51.730;5.356;2023-07-13T15:05:52;23.80;57.50
24618;DHT22;12762;51.730;5.356;2023-07-13T15:08:19;23.90;57.20
24618;DHT22;12762;51.730;5.356;2023-07-13T15:10:46;23.90;57.00
24618;DHT22;12762;51.730;5.356;2023-07-13T15:13:20;23.90;57.20
24618;DHT22;12762;51.730;5.356;2023-07-13T15:15:50;23.90;57.40
24618;DHT22;12762;51.730;5.356;2023-07-13T15:18:21;24.00;57.40
24618;DHT22;12762;51.730;5.356;2023-07-13T15:20:49;23.90;57.50
24618;DHT22;12762;51.730;5.356;2023-07-13T15:23:20;23.80;57.60
24618;DHT22;12762;51.730;5.356;2023-07-13T15:25:47;23.80;57.90
24618;DHT22;12762;51.730;5.356;2023-07-13T15:28:14;23.70;58.10
24618;DHT22;12762;51.730;5.356;2023-07-13T15:30:47;23.70;58.20
24618;DHT22;12762;51.730;5.356;2023-07-13T15:33:27;23.60;58.20
24618;DHT22;12762;51.730;5.356;2023-07-13T15:35:58;23.60;58.40
24618;DHT22;12762;51.730;5.356;2023-07-13T15:38:29;23.60;58.40
24618;DHT22;12762;51.730;5.356;2023-07-13T15:40:57;23.60;58.40
24618;DHT22;12762;51.730;5.356;2023-07-13T15:43:26;23.80;58.60
24618;DHT22;12762;51.730;5.356;2023-07-13T15:45:53;24.00;58.70
24618;DHT22;12762;51.730;5.356;2023-07-13T15:48:22;24.30;58.20
24618;DHT22;12762;51.730;5.356;2023-07-13T15:50:54;24.40;57.60
24618;DHT22;12762;51.730;5.356;2023-07-13T15:53:28;24.40;56.80
24618;DHT22;12762;51.730;5.356;2023-07-13T15:55:55;24.50;56.90
24618;DHT22;12762;51.730;5.356;2023-07-13T15:58:24;24.60;56.50
24618;DHT22;12762;51.730;5.356;2023-07-13T16:00:52;24.70;55.70
24618;DHT22;12762;51.730;5.356;2023-07-13T16:03:21;24.80;55.60
24618;DHT22;12762;51.730;5.356;2023-07-13T16:05:49;25.00;55.40
24618;DHT22;12762;51.730;5.356;2023-07-13T16:08:27;25.10;54.90
24618;DHT22;12762;51.730;5.356;2023-07-13T16:10:55;25.20;54.60
24618;DHT22;12762;51.730;5.356;2023-07-13T16:13:23;25.30;54.20
24618;DHT22;12762;51.730;5.356;2023-07-13T16:15:52;25.20;53.90
24618;DHT22;12762;51.730;5.356;2023-07-13T16:18:19;25.10;53.70
24618;DHT22;12762;51.730;5.356;2023-07-13T16:20:47;25.00;53.60
24618;DHT22;12762;51.730;5.356;2023-07-13T16:23:16;25.10;53.70
24618;DHT22;12762;51.730;5.356;2023-07-13T16:25:44;25.10;53.50
24618;DHT22;12762;51.730;5.356;2023-07-13T16:28:12;25.10;53.60
24618;DHT22;12762;51.730;5.356;2023-07-13T16:30:39;25.10;53.10
24618;DHT22;12762;51.730;5.356;2023-07-13T16:33:06;25.10;53.40